Ellwood City, Pennsylvania
Current Conditions -  °F | °C
As of 8:47 AM on Wednesday 28 Jan 2015 (Local Time) from KBVI Reporting Station
Broken Clouds Broken Clouds  
Wind Chill: -12°   Ceiling: 3000
Heat Index: -12°   Visibility: 7mi
Dew Point: -13°   Wind: 3mph
Humidity: 92%   Direction: 270°W
Pressure: 30.3"   Gusts: NA
Location:  40.86°N, 80.29°W
Report Text: KBVI 281347Z 27003KT 7SM BKN030 M12/M13 A3030
Loading
Personal Weather Stations






























Interactive Weather Map New forecast layout! Learn more

10-Day Weather Forecast

Advertisements
Track Severe Weather on mobile